Time;durP1;ratioP1;P1;durP2;ratioP2;P2;SDS_P1;SDS_P2;PMS_P1;PMS_P2;Temp;Humidity;BMP_temperature;BMP_pressure;BME280_temperature;BME280_humidity;BME280_pressure;Samples;Min_cycle;Max_cycle;Signal;HPM_P1;HPM_P2
2023/03/18 01:31:02;;;;;;;;;;;;;;;;;;;;;
2023/03/18 02:25:22;;;;;;;;;;;;;;;;;;;;;
2023/03/18 02:29:06;;;;;;;;;;;;;;;;;;;;;
2023/03/18 02:35:42;;;;;;;292.90;183.80;;;9.50;99.90;;;;;;5960146;24;19919;-87
2023/03/18 02:38:14;;;;;;;12.50;8.00;;;8.80;99.90;;;;;;5960210;24;20029;-87
2023/03/18 02:55:01;;;;;;;;;;;;;;;;;;;;;
2023/03/18 03:01:45;;;;;;;11.30;7.00;;;9.30;99.90;;;;;;5958929;24;20078;-90
2023/03/18 03:33:14;;;;;;;12.50;7.97;;;9.00;99.90;;;;;;5143813;22;24930961;-88
2023/03/18 03:40:31;;;;;;;;;;;;;;;;;;;;;
2023/03/18 03:44:02;;;;;;;14.45;8.25;;;9.00;99.90;;;;;;6014878;23;20375;-88
2023/03/18 04:07:43;;;;;;;;;;;;;;;;;;;;;
2023/03/18 07:20:42;;;;;;;11.30;4.95;;;9.40;99.90;;;;;;6320275;22;20436;-88
2023/03/18 07:23:11;;;;;;;12.18;5.22;;;9.40;99.90;;;;;;6311554;22;20015;-87
2023/03/18 07:25:40;;;;;;;11.07;5.30;;;9.50;99.90;;;;;;6339192;22;20015;-88
2023/03/18 07:28:19;;;;;;;10.43;5.03;;;10.20;99.90;;;;;;6310520;22;20318;-85
2023/03/18 07:30:45;;;;;;;14.55;6.10;;;9.60;99.90;;;;;;6286192;22;20079;-86
2023/03/18 07:33:11;;;;;;;12.88;6.25;;;9.80;99.90;;;;;;6312355;22;20011;-85
2023/03/18 07:35:39;;;;;;;12.32;6.28;;;10.10;99.90;;;;;;6338929;22;20448;-87
2023/03/18 07:38:16;;;;;;;11.18;6.45;;;10.10;99.90;;;;;;6310887;22;20058;-88
2023/03/18 07:40:42;;;;;;;310.98;179.05;;;10.10;99.90;;;;;;6338619;22;20018;-87
2023/03/18 07:43:08;;;;;;;12.45;5.45;;;10.30;99.90;;;;;;6310766;22;20019;-87
2023/03/18 07:45:42;;;;;;;12.00;6.55;;;10.20;99.90;;;;;;6337807;22;20391;-90
2023/03/18 07:52:45;;;;;;;16.55;8.55;;;10.00;99.90;;;;;;6182880;23;20181;-87
2023/03/18 07:55:14;;;;;;;14.93;8.75;;;10.30;99.90;;;;;;6157734;23;20028;-85
2023/03/18 07:57:39;;;;;;;13.68;7.85;;;10.40;99.90;;;;;;6157924;23;20344;-86
2023/03/18 08:00:07;;;;;;;13.75;8.15;;;10.40;99.90;;;;;;6132811;23;20048;-85
2023/03/18 08:02:34;;;;;;;15.00;7.65;;;10.50;99.90;;;;;;6182679;23;20013;-87
2023/03/18 08:05:14;;;;;;;20.83;9.38;;;10.60;99.90;;;;;;6157274;23;20022;-86
2023/03/18 08:07:40;;;;;;;15.23;8.65;;;10.60;99.90;;;;;;6187359;23;20023;-86
2023/03/18 08:10:07;;;;;;;16.45;8.23;;;10.60;99.90;;;;;;6162474;23;20055;-87
2023/03/18 08:12:33;;;;;;;14.98;7.78;;;10.70;99.90;;;;;;6187125;23;20116;-86
2023/03/18 08:14:59;;;;;;;14.27;8.30;;;10.70;99.90;;;;;;6187480;23;20056;-86
2023/03/18 08:17:25;;;;;;;14.00;7.22;;;10.80;99.90;;;;;;6187554;23;20048;-85
2023/03/18 08:19:51;;;;;;;12.75;7.18;;;10.90;99.90;;;;;;6211309;23;20048;-85
2023/03/18 08:22:17;;;;;;;11.32;6.93;;;11.00;99.90;;;;;;6187368;23;20021;-86
2023/03/18 08:25:00;;;;;;;;;;;;;;;;;;;;;
2023/03/18 08:27:27;;;;;;;17.50;10.68;;;11.10;99.90;;;;;;6237180;22;20011;-87
2023/03/18 08:29:52;;;;;;;17.95;10.90;;;11.20;99.90;;;;;;6310982;22;20084;-87
2023/03/18 08:32:21;;;;;;;19.38;11.30;;;11.20;99.90;;;;;;6310586;22;20365;-87
2023/03/18 08:34:47;;;;;;;16.77;9.88;;;11.20;99.90;;;;;;6310111;22;20022;-88
2023/03/18 08:37:13;;;;;;;20.42;11.93;;;11.20;99.90;;;;;;6310358;22;20118;-86
2023/03/18 08:39:40;;;;;;;20.35;11.60;;;11.40;99.90;;;;;;6310534;22;20026;-86
2023/03/18 08:42:06;;;;;;;21.58;12.27;;;11.50;99.90;;;;;;6338236;22;20089;-86
2023/03/18 08:44:37;;;;;;;20.45;13.25;;;11.50;99.90;;;;;;6310953;22;20019;-88
2023/03/18 08:47:03;;;;;;;19.75;12.05;;;11.50;99.90;;;;;;6311173;22;20007;-88
2023/03/18 08:49:31;;;;;;;18.08;10.75;;;11.10;99.90;;;;;;6337850;22;20065;-87
2023/03/18 08:51:59;;;;;;;17.52;10.77;;;11.60;99.90;;;;;;6311011;22;20033;-86
2023/03/18 08:54:30;;;;;;;15.57;9.52;;;11.60;99.90;;;;;;6284586;22;20027;-88
2023/03/18 08:56:59;;;;;;;16.05;9.55;;;11.60;99.90;;;;;;6310184;22;20502;-86
2023/03/18 08:59:35;;;;;;;13.75;8.63;;;11.70;99.90;;;;;;6310020;22;20066;-89
2023/03/18 09:02:02;;;;;;;10.73;7.03;;;11.70;99.90;;;;;;6338482;22;20010;-85
2023/03/18 09:04:31;;;;;;;14.20;7.22;;;11.80;99.90;;;;;;6284609;22;20309;-88
2023/03/18 09:06:58;;;;;;;11.98;6.93;;;11.80;99.90;;;;;;6338153;22;20019;-88
2023/03/18 09:09:24;;;;;;;10.30;6.63;;;11.90;99.90;;;;;;6338633;22;20086;-88
2023/03/18 09:11:50;;;;;;;9.57;5.43;;;12.00;99.90;;;;;;6285902;22;20057;-88
2023/03/18 09:14:16;;;;;;;10.98;5.63;;;12.00;99.90;;;;;;6313449;22;20465;-87
2023/03/18 09:16:44;;;;;;;10.90;5.63;;;12.10;99.90;;;;;;6312340;22;20011;-88
2023/03/18 09:23:43;;;;;;;9.82;6.07;;;12.20;99.90;;;;;;6337218;22;20022;-86
2023/03/18 09:26:10;;;;;;;11.27;6.97;;;12.20;99.90;;;;;;6341018;22;20019;-86
2023/03/18 09:28:41;;;;;;;11.30;7.75;;;12.20;99.90;;;;;;6313389;22;20479;-88
2023/03/18 09:31:08;;;;;;;13.50;8.85;;;12.20;99.90;;;;;;6340162;22;20337;-89
2023/03/18 09:38:02;;;;;;;17.35;9.93;;;12.80;99.90;;;;;;6340233;22;20452;-87
2023/03/18 09:40:31;;;;;;;16.73;9.57;;;12.30;99.90;;;;;;6311768;22;20449;-86
2023/03/18 09:43:35;;;;;;;15.05;8.13;;;12.30;99.90;;;;;;6312536;22;20011;-85
2023/03/18 09:46:25;;;;;;;15.30;9.80;;;12.40;99.90;;;;;;6312159;22;20022;-87
2023/03/18 09:49:18;;;;;;;16.70;11.05;;;12.40;99.90;;;;;;6339384;22;20062;-89
2023/03/18 09:52:12;;;;;;;16.90;9.85;;;12.50;99.90;;;;;;6312643;22;20018;-86
2023/03/18 09:55:04;;;;;;;16.00;9.48;;;12.50;99.90;;;;;;6340511;22;20041;-86
2023/03/18 09:57:33;;;;;;;13.52;8.63;;;12.50;99.90;;;;;;6312403;22;20019;-86
2023/03/18 10:00:07;;;;;;;12.38;8.23;;;12.60;99.90;;;;;;6338805;22;20345;-87
2023/03/18 10:03:02;;;;;;;12.35;6.97;;;12.50;99.90;;;;;;6339358;22;20046;-86
2023/03/18 10:05:39;;;;;;;15.43;10.48;;;12.80;99.90;;;;;;6311676;22;20038;-86
2023/03/18 10:08:20;;;;;;;19.13;10.52;;;12.80;99.90;;;;;;6339873;22;20085;-86
2023/03/18 10:10:47;;;;;;;20.27;12.15;;;12.80;99.90;;;;;;6312312;22;20019;-85
2023/03/18 10:13:16;;;;;;;15.50;9.07;;;13.00;99.90;;;;;;6310904;22;20036;-84
2023/03/18 10:15:47;;;;;;;14.57;8.88;;;13.10;99.90;;;;;;6285752;22;20015;-84
2023/03/18 10:18:23;;;;;;;10.48;6.93;;;13.30;99.90;;;;;;6339209;22;20019;-84
2023/03/18 10:20:58;;;;;;;13.38;9.48;;;13.50;99.90;;;;;;6312370;22;20376;-83
2023/03/18 10:23:53;;;;;;;17.83;10.75;;;13.70;99.90;;;;;;6339110;22;20019;-83
2023/03/18 10:26:42;;;;;;;15.68;9.00;;;13.70;99.90;;;;;;6285692;22;20097;-85
2023/03/18 10:29:37;;;;;;;13.98;8.77;;;14.10;99.90;;;;;;6339247;22;20429;-85
2023/03/18 10:32:14;;;;;;;15.48;10.07;;;14.40;99.90;;;;;;6183206;23;20152;-86
2023/03/18 10:34:56;;;;;;;15.88;9.50;;;14.70;99.90;;;;;;6183398;23;20016;-85
2023/03/18 10:37:41;;;;;;;13.85;9.23;;;14.80;99.90;;;;;;6158224;23;20100;-91
2023/03/18 10:40:15;;;;;;;11.88;8.40;;;14.80;99.90;;;;;;6183384;23;20547;-85
2023/03/18 10:42:43;;;;;;;13.07;7.30;;;14.80;99.90;;;;;;6213106;23;20020;-88
2023/03/18 10:45:23;;;;;;;14.88;7.88;;;15.00;99.90;;;;;;6187220;23;20024;-85
2023/03/18 10:48:19;;;;;;;16.27;8.77;;;14.80;99.90;;;;;;6213050;23;20017;-84
2023/03/18 10:51:27;;;;;;;13.93;7.80;;;15.00;99.90;;;;;;6094349;23;20075;-87
2023/03/18 10:54:02;;;;;;;12.23;7.93;;;15.10;99.90;;;;;;6094474;23;20049;-86
2023/03/18 10:56:28;;;;;;;10.43;6.72;;;15.20;99.90;;;;;;6070184;23;20026;-87
2023/03/18 10:58:57;;;;;;;14.32;7.68;;;15.40;99.90;;;;;;6094447;23;20015;-87
2023/03/18 11:01:27;;;;;;;10.00;6.10;;;15.50;99.90;;;;;;6070457;23;20022;-85
2023/03/18 11:08:19;;;;;;;11.05;5.57;;;15.80;99.90;;;;;;6065620;23;20461;-87
2023/03/18 11:10:48;;;;;;;10.13;6.70;;;16.00;99.90;;;;;;6128329;23;20017;-87
2023/03/18 11:13:29;;;;;;;;;;;;;;;;;;;;;
2023/03/18 11:15:58;;;;;;;8.90;6.22;;;15.90;99.90;;;;;;6125537;23;20017;-87
2023/03/18 11:18:26;;;;;;;11.02;6.65;;;15.90;99.90;;;;;;6128342;23;20025;-88
2023/03/18 11:20:59;;;;;;;10.52;6.97;;;15.80;99.90;;;;;;6128527;23;20014;-88
2023/03/18 11:23:45;;;;;;;10.88;6.28;;;15.70;99.90;;;;;;6128737;23;20028;-88
2023/03/18 11:26:29;;;;;;;11.60;6.45;;;15.60;99.90;;;;;;6153245;23;20045;-90
2023/03/18 11:29:16;;;;;;;14.18;8.52;;;15.50;99.90;;;;;;6336240;22;20014;-89
2023/03/18 11:32:25;;;;;;;10.73;7.03;;;15.40;99.90;;;;;;6310876;22;20022;-89
2023/03/18 11:35:48;;;;;;;13.07;6.75;;;15.40;99.90;;;;;;6318701;22;20412;-90
2023/03/18 11:41:44;;;;;;;6.82;4.38;;;15.50;99.90;;;;;;6070397;23;20223;-86
2023/03/18 11:44:37;;;;;;;6.85;4.78;;;16.00;99.90;;;;;;6070547;23;20031;-85
2023/03/18 11:47:49;;;;;;;6.80;3.33;;;16.10;99.90;;;;;;6069659;23;20030;-92
2023/03/18 11:50:35;;;;;;;5.97;3.53;;;16.10;99.90;;;;;;5961453;23;20031;-90
2023/03/18 11:53:38;;;;;;;6.10;3.65;;;16.10;99.90;;;;;;5984153;23;20080;-84
2023/03/18 11:56:47;;;;;;;5.13;3.65;;;16.10;99.90;;;;;;5981871;24;20028;-92
2023/03/18 12:17:14;;;;;;;7.15;3.95;;;16.10;99.90;;;;;;6314731;22;20022;-90
2023/03/18 12:20:08;;;;;;;5.88;4.05;;;16.20;99.90;;;;;;6309732;22;20023;-93
2023/03/18 15:33:37;;;;;;;2.53;1.10;;;16.60;99.90;;;;;;6204779;22;1580628;-90
2023/03/18 15:36:15;;;;;;;1.83;0.95;;;16.50;99.90;;;;;;6135893;23;20028;-88
2023/03/18 15:42:01;;;;;;;1.70;0.90;;;16.30;99.90;;;;;;6162347;23;20088;-86
2023/03/18 15:44:38;;;;;;;3.67;1.13;;;16.30;99.90;;;;;;6160956;23;20017;-88
2023/03/18 15:47:33;;;;;;;2.15;1.27;;;16.20;99.90;;;;;;6160041;23;20021;-87
2023/03/18 15:50:24;;;;;;;2.08;1.27;;;16.10;99.90;;;;;;6014168;23;20076;-88
2023/03/18 15:53:52;;;;;;;;;;;;;;;;;;;;;
2023/03/18 15:56:32;;;;;;;1.33;0.90;;;16.10;99.90;;;;;;5875638;24;20032;-89
2023/03/18 15:59:30;;;;;;;2.03;1.20;;;16.00;99.90;;;;;;5898584;24;20026;-87
2023/03/18 16:13:03;;;;;;;2.40;1.30;;;16.00;99.90;;;;;;5844483;24;20020;-88
2023/03/18 16:15:29;;;;;;;4.80;1.40;;;15.90;99.90;;;;;;5821763;24;20078;-86
2023/03/18 16:17:56;;;;;;;2.38;1.30;;;15.90;99.90;;;;;;5822030;24;20186;-87
2023/03/18 16:20:28;;;;;;;2.20;1.35;;;15.90;99.90;;;;;;5821674;24;20027;-89
2023/03/18 16:22:54;;;;;;;3.90;1.48;;;15.90;99.90;;;;;;5821629;24;20140;-86
2023/03/18 16:25:22;;;;;;;5.85;1.55;;;15.80;99.90;;;;;;5843881;24;20066;-87
2023/03/18 16:27:50;;;;;;;2.75;1.27;;;15.80;99.90;;;;;;5957264;24;20359;-86
2023/03/18 16:30:43;;;;;;;2.03;1.30;;;15.80;99.90;;;;;;5980614;24;20024;-87
2023/03/18 16:33:13;;;;;;;2.78;1.60;;;15.60;99.90;;;;;;5974621;23;20029;-87
2023/03/18 16:35:42;;;;;;;3.13;1.55;;;15.50;99.90;;;;;;6036901;23;20027;-86
2023/03/18 16:38:17;;;;;;;5.10;1.80;;;15.50;99.90;;;;;;6015959;23;20088;-86
2023/03/18 16:40:48;;;;;;;5.35;1.67;;;15.60;99.90;;;;;;6156427;23;20057;-86
2023/03/18 16:43:27;;;;;;;3.08;1.92;;;15.40;99.90;;;;;;6154407;23;20441;-86
2023/03/18 16:45:58;;;;;;;3.88;1.77;;;15.30;99.90;;;;;;6154402;23;20392;-87
2023/03/18 16:48:25;;;;;;;3.50;1.90;;;15.30;99.90;;;;;;6153326;23;20013;-86
2023/03/18 16:50:56;;;;;;;3.58;1.65;;;15.30;99.90;;;;;;6154649;23;20025;-87
2023/03/18 16:53:34;;;;;;;3.85;1.52;;;15.20;99.90;;;;;;6154134;23;20096;-88
2023/03/18 16:56:17;;;;;;;2.38;1.30;;;15.20;99.90;;;;;;6129750;23;20021;-88
2023/03/18 16:58:46;;;;;;;2.40;1.65;;;15.20;99.90;;;;;;6154341;23;20528;-87
2023/03/18 17:01:33;;;;;;;3.75;1.63;;;15.10;99.90;;;;;;6154526;23;20017;-87
2023/03/18 17:04:15;;;;;;;3.05;1.80;;;15.00;99.90;;;;;;6130356;23;20025;-89
2023/03/18 17:06:44;;;;;;;2.22;1.30;;;14.90;99.90;;;;;;6155742;23;20025;-87
2023/03/18 17:09:10;;;;;;;3.35;1.58;;;14.90;99.90;;;;;;6154344;23;20021;-86
2023/03/18 17:11:40;;;;;;;2.42;1.40;;;14.80;99.90;;;;;;6154532;23;20556;-87
2023/03/18 17:14:07;;;;;;;2.67;1.30;;;14.70;99.90;;;;;;6129887;23;20025;-87
2023/03/18 17:16:49;;;;;;;2.95;1.55;;;14.60;99.90;;;;;;6155691;23;20018;-88
2023/03/18 17:19:25;;;;;;;1.73;1.10;;;14.50;99.90;;;;;;6153398;23;20032;-86
2023/03/18 17:21:52;;;;;;;1.60;1.02;;;14.20;99.90;;;;;;6153445;23;20021;-86
2023/03/18 17:24:24;;;;;;;1.63;1.00;;;14.30;99.90;;;;;;6153987;23;20060;-88
2023/03/18 17:29:22;;;;;;;3.08;0.82;;;14.00;99.90;;;;;;6192099;23;20360;-86
2023/03/18 17:31:49;;;;;;;2.55;0.80;;;13.90;99.90;;;;;;6159060;23;20459;-85
2023/03/18 17:34:15;;;;;;;1.45;0.90;;;13.80;99.90;;;;;;6159069;23;20044;-87
2023/03/18 17:36:41;;;;;;;1.63;0.73;;;13.60;99.90;;;;;;6184513;23;20036;-86
2023/03/18 17:39:13;;;;;;;1.67;0.80;;;13.50;99.90;;;;;;6158878;23;20017;-88
2023/03/18 17:41:39;;;;;;;1.55;0.80;;;13.40;99.90;;;;;;6158867;23;20021;-86
2023/03/18 17:44:24;;;;;;;1.52;0.60;;;13.30;99.90;;;;;;6158439;23;20436;-85
2023/03/18 17:46:57;;;;;;;2.07;0.50;;;13.20;99.90;;;;;;6158392;23;20025;-89
2023/03/18 17:49:26;;;;;;;0.95;0.65;;;13.00;99.90;;;;;;6158744;23;20028;-85
2023/03/18 17:51:54;;;;;;;1.30;0.63;;;12.90;99.90;;;;;;6159325;23;20028;-87
2023/03/18 17:54:24;;;;;;;1.10;0.40;;;12.70;99.90;;;;;;6134056;23;20527;-86
2023/03/18 17:56:53;;;;;;;0.80;0.50;;;12.60;99.90;;;;;;6134724;23;20021;-86
2023/03/18 17:59:19;;;;;;;1.00;0.50;;;12.50;99.90;;;;;;6134181;23;20025;-88
2023/03/18 18:01:51;;;;;;;0.88;0.40;;;12.40;99.90;;;;;;6184638;23;20511;-89
2023/03/18 18:04:27;;;;;;;1.58;0.50;;;12.30;99.90;;;;;;6135286;23;20051;-87
2023/03/18 18:06:58;;;;;;;1.55;0.60;;;12.40;99.90;;;;;;6184294;23;20025;-86
2023/03/18 18:09:24;;;;;;;1.75;0.82;;;12.20;99.90;;;;;;6183740;23;20028;-88
2023/03/18 18:11:52;;;;;;;2.00;0.50;;;12.10;99.90;;;;;;6158324;23;20013;-87
2023/03/18 18:14:24;;;;;;;0.63;0.47;;;12.10;99.90;;;;;;6158758;23;20460;-86
2023/03/18 18:16:52;;;;;;;1.08;0.40;;;12.00;99.90;;;;;;6158537;23;20435;-86
2023/03/18 18:19:18;;;;;;;0.55;0.50;;;12.00;99.90;;;;;;6184861;23;20024;-86
2023/03/18 18:21:45;;;;;;;2.80;0.50;;;12.10;99.90;;;;;;6158432;23;20092;-85
2023/03/18 18:24:22;;;;;;;0.73;0.40;;;11.90;99.90;;;;;;6158314;23;20521;-83
2023/03/18 18:27:21;;;;;;;;;;;;;;;;;;;;;
2023/03/18 18:30:01;;;;;;;0.50;0.40;;;11.70;99.90;;;;;;6084846;23;20021;-87
2023/03/18 18:32:26;;;;;;;0.70;0.47;;;11.80;99.90;;;;;;6185652;23;20105;-87
2023/03/18 18:42:14;;;;;;;0.57;0.40;;;11.50;99.90;;;;;;6186638;23;20020;-85
2023/03/18 18:44:39;;;;;;;3.45;0.68;;;11.50;99.90;;;;;;6160239;23;20350;-86
2023/03/18 18:47:17;;;;;;;0.65;0.50;;;11.40;99.90;;;;;;6186612;23;20025;-85
2023/03/18 18:49:43;;;;;;;1.23;0.50;;;11.40;99.90;;;;;;6186870;23;20083;-85
2023/03/18 18:52:12;;;;;;;0.68;0.40;;;11.40;99.90;;;;;;6160864;23;20464;-86
2023/03/18 18:54:38;;;;;;;0.70;0.50;;;11.30;99.90;;;;;;6160134;23;20017;-87
2023/03/18 18:57:04;;;;;;;0.50;0.40;;;11.30;99.90;;;;;;6186736;23;20039;-85
2023/03/18 18:59:33;;;;;;;0.55;0.40;;;11.50;99.90;;;;;;6186723;23;20035;-86
2023/03/18 19:02:12;;;;;;;0.47;0.40;;;11.20;99.90;;;;;;6160654;23;20017;-86
2023/03/18 19:04:38;;;;;;;0.40;0.40;;;11.10;99.90;;;;;;6160177;23;20025;-85
2023/03/18 19:07:05;;;;;;;0.50;0.40;;;11.10;99.90;;;;;;6135274;23;20083;-86
2023/03/18 19:09:31;;;;;;;0.40;0.38;;;11.10;99.90;;;;;;6159878;23;20017;-85
2023/03/18 19:11:57;;;;;;;0.47;0.40;;;11.00;99.90;;;;;;6159666;23;20032;-85
2023/03/18 19:14:27;;;;;;;0.82;0.40;;;11.00;99.90;;;;;;6159894;23;20099;-85
2023/03/18 19:16:57;;;;;;;0.30;0.30;;;11.00;99.90;;;;;;6135213;23;20025;-86
2023/03/18 19:19:32;;;;;;;1.73;0.57;;;11.00;99.90;;;;;;6160051;23;20017;-86
2023/03/18 19:21:57;;;;;;;0.30;0.30;;;11.00;99.90;;;;;;6159849;23;20028;-86
2023/03/18 19:24:28;;;;;;;0.52;0.32;;;10.90;99.90;;;;;;6186976;23;20013;-84
2023/03/18 19:26:56;;;;;;;0.45;0.35;;;10.90;99.90;;;;;;6186137;23;20432;-84
2023/03/18 19:29:22;;;;;;;0.40;0.40;;;10.80;99.90;;;;;;6159905;23;20013;-85
2023/03/18 19:31:49;;;;;;;0.43;0.43;;;10.70;99.90;;;;;;6186283;23;20029;-85
2023/03/18 19:34:19;;;;;;;0.45;0.35;;;10.70;99.90;;;;;;6185800;23;20051;-84
2023/03/18 19:36:51;;;;;;;0.68;0.38;;;10.60;99.90;;;;;;6186622;23;20021;-85
2023/03/18 19:39:18;;;;;;;1.77;0.32;;;10.60;99.90;;;;;;6159210;23;20344;-84
2023/03/18 19:41:48;;;;;;;0.80;0.40;;;10.50;99.90;;;;;;6186291;23;20372;-85
2023/03/18 19:44:16;;;;;;;0.35;0.35;;;10.40;99.90;;;;;;6159483;23;20096;-83
2023/03/18 19:46:44;;;;;;;0.93;0.50;;;10.40;99.90;;;;;;6159559;23;20189;-85
2023/03/18 19:49:38;;;;;;;0.50;0.40;;;10.30;99.90;;;;;;6158528;23;20333;-85
2023/03/18 19:52:21;;;;;;;0.30;0.30;;;10.20;99.90;;;;;;6156888;23;20102;-88
2023/03/18 19:54:48;;;;;;;0.50;0.40;;;10.20;99.90;;;;;;6159902;23;20036;-91
2023/03/18 19:57:35;;;;;;;1.75;0.40;;;10.10;99.90;;;;;;6134922;23;20017;-91
2023/03/18 20:00:09;;;;;;;1.90;0.40;;;10.00;99.90;;;;;;6159054;23;20017;-86
2023/03/18 20:02:39;;;;;;;0.30;0.30;;;10.00;99.90;;;;;;6160106;23;20348;-88
2023/03/18 20:05:17;;;;;;;0.30;0.30;;;9.90;99.90;;;;;;6135095;23;20024;-89
2023/03/18 20:07:43;;;;;;;0.35;0.30;;;9.40;99.90;;;;;;6158383;23;20021;-87
2023/03/18 20:10:10;;;;;;;0.30;0.30;;;9.70;99.90;;;;;;6159865;23;20522;-89
2023/03/18 20:12:47;;;;;;;1.05;0.30;;;10.30;99.90;;;;;;6159580;23;20024;-86
2023/03/18 20:15:25;;;;;;;0.52;0.30;;;9.70;99.90;;;;;;6135576;23;20048;-91
2023/03/18 20:17:52;;;;;;;0.80;0.40;;;9.60;99.90;;;;;;6159432;23;20456;-88
2023/03/18 20:20:26;;;;;;;0.52;0.20;;;9.70;99.90;;;;;;6159687;23;20024;-87
2023/03/18 20:23:07;;;;;;;0.20;0.20;;;9.50;99.90;;;;;;6158631;23;20024;-89
2023/03/18 20:25:41;;;;;;;0.40;0.40;;;9.50;99.90;;;;;;6159595;23;20329;-85
2023/03/18 20:28:15;;;;;;;0.65;0.30;;;9.40;99.90;;;;;;6186257;22;20024;-86
2023/03/18 20:30:42;;;;;;;0.30;0.30;;;9.50;99.90;;;;;;6159297;23;20021;-86
2023/03/18 20:33:11;;;;;;;0.55;0.30;;;9.40;99.90;;;;;;6159779;23;20020;-91
2023/03/18 20:35:45;;;;;;;1.55;0.50;;;9.50;99.90;;;;;;6159831;23;20455;-88
2023/03/18 20:38:27;;;;;;;0.60;0.50;;;9.30;99.90;;;;;;6159106;23;20028;-86
2023/03/18 20:40:53;;;;;;;0.75;0.40;;;9.20;99.90;;;;;;6160233;23;20023;-89
2023/03/18 20:43:25;;;;;;;1.50;0.50;;;8.80;99.90;;;;;;6159403;23;20020;-86
2023/03/18 20:45:56;;;;;;;1.00;0.52;;;9.10;99.90;;;;;;6159291;23;20096;-90
2023/03/18 20:48:22;;;;;;;0.60;0.50;;;9.10;99.90;;;;;;6160558;23;20021;-87
2023/03/18 20:50:50;;;;;;;1.00;0.60;;;9.20;99.90;;;;;;6159757;23;20051;-89
2023/03/18 20:53:43;;;;;;;0.70;0.47;;;9.00;99.90;;;;;;6159024;23;20087;-87
2023/03/18 20:56:09;;;;;;;0.90;0.60;;;9.20;99.90;;;;;;6174778;23;20106;-93
2023/03/18 20:58:38;;;;;;;0.50;0.50;;;8.90;99.90;;;;;;6159380;23;20027;-90
2023/03/18 21:01:05;;;;;;;0.80;0.70;;;8.90;99.90;;;;;;6159446;23;20095;-88
2023/03/18 21:03:37;;;;;;;1.00;0.60;;;8.80;99.90;;;;;;6186468;23;20096;-89
2023/03/18 21:06:06;;;;;;;1.30;0.80;;;8.70;99.90;;;;;;6159089;23;20060;-89
2023/03/18 21:08:36;;;;;;;2.08;0.70;;;8.70;99.90;;;;;;6160030;23;20043;-88
2023/03/18 21:11:28;;;;;;;1.48;0.80;;;8.60;99.90;;;;;;6161671;23;20044;-92
2023/03/18 21:13:55;;;;;;;1.08;0.60;;;8.50;99.90;;;;;;6160685;23;20052;-87
2023/03/18 21:16:21;;;;;;;1.13;0.70;;;8.40;99.90;;;;;;6160817;23;20013;-89
2023/03/18 21:18:50;;;;;;;1.17;0.70;;;8.80;99.90;;;;;;6160076;23;20100;-90
2023/03/18 21:21:34;;;;;;;1.42;0.60;;;8.00;99.90;;;;;;6160538;23;20074;-91
2023/03/18 21:24:30;;;;;;;1.30;0.88;;;8.40;99.90;;;;;;6160368;23;20039;-92
2023/03/18 21:26:56;;;;;;;1.25;0.70;;;8.30;99.90;;;;;;6104895;23;20017;-89
2023/03/18 21:29:28;;;;;;;2.03;0.63;;;8.30;99.90;;;;;;6162806;23;20024;-90
2023/03/18 21:31:56;;;;;;;2.60;1.00;;;8.20;99.90;;;;;;6186395;23;20524;-93
2023/03/18 21:34:37;;;;;;;1.00;0.65;;;8.40;99.90;;;;;;6160375;23;20071;-88
2023/03/18 21:37:08;;;;;;;1.30;0.70;;;8.20;99.90;;;;;;6158006;23;20048;-83
2023/03/18 21:39:33;;;;;;;1.33;0.77;;;8.20;99.90;;;;;;6160087;23;20049;-89
2023/03/18 21:42:53;;;;;;;;;;;;;;;;;;;;;
2023/03/18 21:45:53;;;;;;;;;;;;;;;;;;;;;
2023/03/18 21:49:16;;;;;;;;;;;;;;;;;;;;;
2023/03/18 21:59:48;;;;;;;;;;;;;;;;;;;;;
2023/03/18 22:02:57;;;;;;;;;;;;;;;;;;;;;
2023/03/18 22:05:48;;;;;;;2.25;0.77;;;7.90;99.90;;;;;;5927268;24;20033;-89
2023/03/18 22:08:59;;;;;;;;;;;;;;;;;;;;;
2023/03/18 22:18:55;;;;;;;0.98;0.70;;;7.80;99.90;;;;;;5789544;24;20033;-89
2023/03/18 22:25:07;;;;;;;1.92;0.70;;;8.70;99.90;;;;;;5717865;25;20067;-90
2023/03/18 22:27:52;;;;;;;;;;;;;;;;;;;;;
2023/03/18 22:30:54;;;;;;;;;;;;;;;;;;;;;
2023/03/18 22:33:49;;;;;;;1.83;0.90;;;7.90;99.90;;;;;;5716052;25;20009;-89
2023/03/18 22:50:52;;;;;;;1.92;0.88;;;8.10;99.90;;;;;;5835002;24;20026;-88
2023/03/18 22:54:09;;;;;;;;;;;;;;;;;;;;;
2023/03/18 22:58:05;;;;;;;;;;;;;;;;;;;;;
2023/03/18 23:48:05;;;;;;;;;;;;;;;;;;;;;
2023/03/18 23:54:37;;;;;;;;;;;;;;;;;;;;;
